Weather forecast for Bulen (Булен)

Russia, 519 m
N52.847, E104.807


Sounding

Red line — air temperature ˚C.
Blue line — thermal bubble temperature ˚C.
Green line — dew point temperature ˚C.
Wind speed is in meters per second.

Table forecast

GFS 0.25˚ model

temp. wind gust humid. clouds prec. press. hpbl
Mon20 00:00 7 118.0 ese 1 1 29 2 0.0 1017 22
03:00 5 116.0 ese 1 1 33 1 0.0 1017 22
06:00 4 84.0 e 2 2 34 0 0.0 1017 22
09:00 10 101.0 e 2 3 30 0 0.0 1015 261
12:00 17 169.0 s 2 3 22 0 0.0 1013 906
15:00 21 247.0 wsw 2 3 20 0 0.0 1012 1725
18:00 22 281.0 w 2 3 19 0 0.0 1010 2080
21:00 18 167.0 sse 2 3 31 2 0.0 1010 26
 
Tue21 00:00 11 133.0 se 2 3 38 87 0.0 1011 26
03:00 9 96.0 e 2 3 35 92 0.0 1010 30
06:00 10 133.0 se 0 1 33 98 0.0 1010 22
09:00 11 147.0 sse 2 4 39 99 0.0 1010 192
12:00 18 209.0 ssw 3 4 40 67 0.0 1007 661
15:00 23 220.0 sw 3 3 31 51 0.0 1004 1428
18:00 25 208.0 ssw 2 3 25 64 0.0 1001 1784
21:00 21 146.0 se 3 4 36 66 0.0 1000 61
 
Wed22 00:00 15 122.0 ese 2 2 41 100 0.0 1000 27
03:00 12 101.0 e 1 1 44 100 0.0 999 23
06:00 11 270.0 w 2 3 53 98 0.0 1001 38
09:00 17 2.0 n 4 7 51 99 0.0 1003 807
12:00 21 335.0 nnw 3 3 42 100 0.0 1002 1357
15:00 24 329.0 nnw 1 2 35 100 0.0 1000 1711
18:00 23 347.0 nnw 2 2 34 100 0.0 998 1130
21:00 20 343.0 nnw 2 2 44 96 0.0 999 27
 
Thu23 00:00 16 12.0 nne 3 5 52 100 0.1 1001 107
03:00 13 326.0 nw 2 3 74 100 0.4 1002 67
06:00 10 26.0 nne 4 10 67 99 0.1 1004 591
09:00 10 353.0 n 4 6 65 100 0.1 1007 814
12:00 9 339.0 nnw 4 6 78 100 1.2 1009 619
15:00 9 326.0 nw 5 8 75 100 2.4 1010 736
18:00 10 276.0 w 5 7 75 100 1.1 1011 652
21:00 9 251.0 wsw 4 6 81 100 1.3 1013 497
 
Fri24 00:00 5 232.0 sw 2 3 95 8 0.0 1015 36
03:00 4 175.0 s 1 2 93 4 0.0 1015 22
06:00 3 143.0 se 1 1 92 0 0.0 1015 22
09:00 8 107.0 ese 0 1 68 10 0.0 1015 257
12:00 13 299.0 wnw 2 2 48 96 0.0 1014 822
15:00 15 294.0 wnw 3 2 38 98 0.0 1013 1393
18:00 14 338.0 nnw 4 5 47 100 0.1 1013 1354
21:00 10 290.0 wnw 2 2 67 100 0.5 1015 30
 

0.016 s